Time;durP1;ratioP1;P1;durP2;ratioP2;P2;SDS_P1;SDS_P2;PMS_P1;PMS_P2;Temp;Humidity;BMP_temperature;BMP_pressure;BME280_temperature;BME280_humidity;BME280_pressure;Samples;Min_cycle;Max_cycle;Signal;HPM_P1;HPM_P2
2021/12/01 00:01:17;;;;;;;4.72;3.17;;;3.70;99.90;;;2.54;100.00;96944.31;5029704;28;20046;-70
2021/12/01 00:03:44;;;;;;;4.55;2.85;;;3.60;99.90;;;2.48;100.00;96965.78;5029319;28;20103;-70
2021/12/01 00:06:11;;;;;;;2.45;1.48;;;3.60;99.90;;;2.49;100.00;96941.84;5030182;28;20486;-70
2021/12/01 00:08:39;;;;;;;2.50;1.45;;;3.60;99.90;;;2.47;100.00;96941.03;5029137;28;20124;-70
2021/12/01 00:11:05;;;;;;;4.03;2.20;;;3.60;99.90;;;2.47;100.00;96958.13;5029491;28;20137;-70
2021/12/01 00:13:33;;;;;;;3.35;1.77;;;3.50;99.90;;;2.49;100.00;96911.13;5032087;28;20049;-70
2021/12/01 00:16:02;;;;;;;4.53;2.08;;;3.60;99.90;;;2.46;100.00;96923.13;5029454;28;20077;-71
2021/12/01 00:18:30;;;;;;;3.95;1.77;;;3.60;99.90;;;2.46;100.00;96895.81;5027905;28;20059;-70
2021/12/01 00:20:58;;;;;;;3.13;1.98;;;3.50;99.90;;;2.42;100.00;96929.22;5027050;28;20132;-70
2021/12/01 00:23:25;;;;;;;2.42;1.30;;;3.50;99.90;;;2.37;100.00;96936.97;5025162;28;20140;-70
2021/12/01 00:25:53;;;;;;;2.33;1.42;;;3.50;99.90;;;2.40;100.00;96920.72;5028717;28;20053;-70
2021/12/01 00:28:20;;;;;;;1.77;1.27;;;3.50;99.90;;;2.35;100.00;96931.06;5029696;28;20136;-71
2021/12/01 00:30:47;;;;;;;2.33;1.10;;;3.50;99.90;;;2.39;100.00;96930.09;5029244;28;20088;-69
2021/12/01 00:33:23;;;;;;;2.05;1.00;;;3.40;99.90;;;2.37;100.00;96941.25;5029491;28;20149;-69
2021/12/01 00:35:53;;;;;;;2.05;1.00;;;3.40;99.90;;;2.41;100.00;96892.50;5029021;28;20042;-69
2021/12/01 00:38:23;;;;;;;2.70;1.42;;;3.40;99.90;;;2.29;100.00;96892.75;5026742;28;20124;-70
2021/12/01 00:40:50;;;;;;;2.08;1.13;;;3.40;99.90;;;2.19;100.00;96874.19;5012060;28;20076;-69
2021/12/01 00:43:18;;;;;;;3.20;1.50;;;3.40;99.90;;;2.18;100.00;96858.84;5029221;28;20137;-68
2021/12/01 00:45:53;;;;;;;2.83;1.40;;;3.40;99.90;;;2.18;100.00;96882.72;5029796;28;20406;-68
2021/12/01 00:48:21;;;;;;;3.05;1.60;;;3.40;99.90;;;2.26;100.00;96860.38;5032084;28;20080;-69
2021/12/01 00:50:49;;;;;;;5.18;1.77;;;3.50;99.90;;;2.21;100.00;96892.06;5029639;28;20073;-68
2021/12/01 00:53:16;;;;;;;2.25;1.10;;;3.40;99.90;;;2.28;100.00;96860.31;5029994;28;20650;-68
2021/12/01 00:55:45;;;;;;;1.63;0.82;;;3.40;99.90;;;2.33;100.00;96889.25;5027711;28;20061;-69
2021/12/01 00:58:14;;;;;;;2.50;1.42;;;3.40;99.90;;;2.22;100.00;96906.56;5026264;28;20069;-69
2021/12/01 01:00:42;;;;;;;3.13;1.75;;;3.40;99.90;;;2.22;100.00;96834.88;5028573;28;20068;-69
2021/12/01 01:03:09;;;;;;;2.22;1.10;;;3.40;99.90;;;2.21;100.00;96854.53;5028499;28;20050;-69
2021/12/01 01:05:37;;;;;;;2.55;1.45;;;3.40;99.90;;;2.24;100.00;96889.47;5025394;28;20049;-68
2021/12/01 01:08:06;;;;;;;3.38;2.08;;;3.40;99.90;;;2.25;100.00;96855.28;5031225;28;20155;-69
2021/12/01 01:18:47;;;;;;;4.75;2.38;;;3.40;99.90;;;2.24;100.00;96830.56;5036861;28;20111;-68
2021/12/01 01:21:15;;;;;;;3.47;1.88;;;3.40;99.90;;;2.25;100.00;96856.13;5016993;28;20065;-68
2021/12/01 01:23:43;;;;;;;3.67;2.42;;;3.40;99.90;;;2.24;100.00;96854.44;5028045;28;20042;-68
2021/12/01 01:26:14;;;;;;;5.68;2.35;;;3.50;99.90;;;2.28;100.00;96868.00;5038303;28;20120;-69
2021/12/01 01:28:43;;;;;;;4.72;2.90;;;3.50;99.90;;;2.22;100.00;96850.25;5019464;28;20155;-69
2021/12/01 01:31:11;;;;;;;6.50;4.18;;;3.50;99.90;;;2.28;100.00;96815.09;5021566;28;20132;-68
2021/12/01 01:33:39;;;;;;;3.50;2.17;;;3.50;99.90;;;2.28;100.00;96814.22;5015314;28;20408;-68
2021/12/01 01:36:07;;;;;;;3.55;2.13;;;3.50;99.90;;;2.24;100.00;96826.28;5052014;28;20110;-69
2021/12/01 01:38:35;;;;;;;4.38;2.70;;;3.50;99.90;;;2.24;100.00;96823.72;5027076;28;20095;-68
2021/12/01 01:41:08;;;;;;;6.22;3.40;;;3.60;99.90;;;2.27;100.00;96795.47;5028384;28;20132;-68
2021/12/01 01:43:37;;;;;;;4.03;2.22;;;3.50;99.90;;;2.24;100.00;96818.59;5025749;28;20413;-69
2021/12/01 01:46:06;;;;;;;4.78;2.42;;;3.50;99.90;;;2.25;100.00;96843.31;5030032;28;20140;-69
2021/12/01 01:48:44;;;;;;;6.07;3.63;;;3.50;99.90;;;2.29;100.00;96795.44;5038996;28;20055;-69
2021/12/01 01:51:13;;;;;;;6.45;2.65;;;3.40;99.90;;;2.33;100.00;96803.88;5022713;28;20041;-69
2021/12/01 01:53:41;;;;;;;5.60;3.47;;;3.50;99.90;;;2.27;100.00;96812.56;5030935;28;20136;-70
2021/12/01 01:56:10;;;;;;;3.80;2.28;;;3.50;99.90;;;2.32;100.00;96779.16;5027648;28;20455;-69
2021/12/01 01:58:37;;;;;;;7.35;3.85;;;3.50;99.90;;;2.28;100.00;96791.19;5026749;28;20077;-69
2021/12/01 02:01:09;;;;;;;6.20;3.35;;;3.50;99.90;;;2.32;100.00;96791.97;5044354;28;20128;-69
2021/12/01 02:03:41;;;;;;;6.60;3.53;;;3.50;99.90;;;2.24;100.00;96803.22;5025931;28;20132;-68
2021/12/01 02:06:11;;;;;;;8.82;4.60;;;3.50;99.90;;;2.22;100.00;96775.97;5016957;28;20501;-69
2021/12/01 02:08:40;;;;;;;6.85;4.15;;;3.50;99.90;;;2.38;100.00;96769.63;5041995;28;20577;-69
2021/12/01 02:11:11;;;;;;;8.75;5.40;;;3.50;99.90;;;-146.41;100.00;57768.22;5027900;28;20592;-69
2021/12/01 02:13:41;;;;;;;8.95;4.88;;;3.50;99.90;;;2.40;100.00;96752.50;5021100;28;20064;-69
2021/12/01 02:16:09;;;;;;;11.82;7.50;;;3.50;99.90;;;2.29;100.00;96770.69;5030115;28;20048;-69
2021/12/01 02:18:38;;;;;;;12.75;7.72;;;3.60;99.90;;;2.33;100.00;96791.09;5022649;28;20089;-69
2021/12/01 02:21:12;;;;;;;18.83;9.10;;;3.60;99.90;;;2.36;100.00;96785.91;5024662;28;20409;-69
2021/12/01 02:23:48;;;;;;;15.98;8.90;;;3.60;99.90;;;2.46;100.00;96783.13;5023299;28;20072;-68
2021/12/01 02:26:19;;;;;;;12.80;8.23;;;3.60;99.90;;;2.47;100.00;96743.81;5015781;28;20080;-69
2021/12/01 02:28:50;;;;;;;15.52;7.82;;;3.60;99.90;;;2.50;100.00;96748.84;5021809;28;20132;-69
2021/12/01 02:31:18;;;;;;;14.18;8.57;;;3.70;99.90;;;2.55;100.00;96758.16;5027821;28;20224;-68
2021/12/01 02:33:45;;;;;;;11.43;6.82;;;3.70;99.90;;;2.63;100.00;96769.91;5027471;28;20049;-67
2021/12/01 02:36:15;;;;;;;16.98;9.18;;;3.70;99.90;;;2.87;100.00;96736.84;5023048;28;20132;-69
2021/12/01 02:38:44;;;;;;;11.00;7.53;;;3.70;99.90;;;2.86;100.00;96736.00;5031576;28;20084;-69
2021/12/01 02:41:12;;;;;;;10.50;6.72;;;3.80;99.90;;;2.67;100.00;96757.88;5025728;28;20140;-68
2021/12/01 02:43:40;;;;;;;10.20;6.60;;;3.90;99.90;;;2.64;100.00;96719.50;5018039;28;20081;-69
2021/12/01 02:46:08;;;;;;;13.70;8.07;;;3.90;99.90;;;2.63;100.00;96687.91;5031389;28;20173;-68
2021/12/01 02:48:41;;;;;;;8.05;4.45;;;3.90;99.90;;;2.63;100.00;96653.78;5017876;28;20046;-68
2021/12/01 02:51:12;;;;;;;13.02;5.93;;;3.80;99.90;;;2.77;100.00;96726.00;5026676;28;20136;-68
2021/12/01 02:53:40;;;;;;;8.70;4.80;;;3.80;99.90;;;2.68;100.00;96685.22;5023239;28;20536;-69
2021/12/01 02:56:08;;;;;;;9.88;4.78;;;3.90;99.90;;;2.73;100.00;96673.97;5025698;28;20105;-67
2021/12/01 02:58:41;;;;;;;8.68;4.95;;;3.90;99.90;;;2.68;100.00;96693.75;5023542;28;20081;-69
2021/12/01 03:01:15;;;;;;;13.30;6.55;;;3.80;99.90;;;2.75;100.00;96673.09;5030711;28;20136;-69
2021/12/01 03:03:43;;;;;;;8.32;4.70;;;3.90;99.90;;;2.83;100.00;96663.47;5021588;28;20045;-68
2021/12/01 03:06:11;;;;;;;10.82;6.90;;;3.80;99.90;;;2.85;100.00;96677.09;5028347;28;20136;-68
2021/12/01 03:08:41;;;;;;;7.75;3.92;;;3.80;99.90;;;2.75;100.00;96679.06;5037984;28;20125;-68
2021/12/01 03:11:09;;;;;;;6.13;3.80;;;3.80;99.90;;;2.75;100.00;96639.78;5034296;28;20076;-68
2021/12/01 03:13:36;;;;;;;9.25;5.55;;;3.80;99.90;;;2.76;100.00;96601.31;5031090;28;20413;-69
2021/12/01 03:16:04;;;;;;;10.65;6.72;;;3.80;99.90;;;2.76;100.00;96667.94;5011145;28;20061;-70
2021/12/01 03:18:31;;;;;;;10.30;3.88;;;3.80;99.90;;;2.78;100.00;96643.09;5025377;28;20087;-70
2021/12/01 03:20:59;;;;;;;8.18;5.63;;;3.80;99.90;;;2.81;100.00;96666.09;5022603;28;20085;-69
2021/12/01 03:23:27;;;;;;;7.47;4.90;;;3.80;99.90;;;2.77;100.00;96644.00;5023680;28;20149;-68
2021/12/01 03:25:54;;;;;;;9.10;5.95;;;3.90;99.90;;;2.83;100.00;96599.41;5029595;28;20154;-69
2021/12/01 03:28:21;;;;;;;9.52;5.15;;;3.80;99.90;;;2.86;100.00;96595.03;5031690;28;20112;-68
2021/12/01 03:30:48;;;;;;;10.68;6.35;;;3.90;99.90;;;2.85;100.00;96597.63;5027336;28;20122;-70
2021/12/01 03:33:19;;;;;;;12.70;7.03;;;3.90;99.90;;;2.82;100.00;96588.31;5032554;28;20429;-69
2021/12/01 03:35:49;;;;;;;11.20;6.22;;;3.90;99.90;;;2.85;100.00;96587.38;5026033;28;20060;-69
2021/12/01 03:38:19;;;;;;;10.10;5.45;;;3.90;99.90;;;2.80;100.00;96584.13;5032951;28;20048;-68
2021/12/01 03:40:46;;;;;;;14.98;7.55;;;3.90;99.90;;;2.84;100.00;96565.22;5026257;28;20437;-68
2021/12/01 03:43:14;;;;;;;15.93;7.88;;;3.90;99.90;;;2.83;100.00;96581.47;5028036;28;20136;-69
2021/12/01 03:45:43;;;;;;;13.15;7.25;;;3.90;99.90;;;2.79;100.00;96585.84;5021376;28;20077;-68
2021/12/01 03:48:10;;;;;;;11.98;7.05;;;3.90;99.90;;;2.73;100.00;96586.84;5022449;28;20049;-70
2021/12/01 03:50:39;;;;;;;9.85;4.78;;;3.90;99.90;;;2.78;100.00;96573.91;5032576;28;20129;-68
2021/12/01 03:53:06;;;;;;;11.70;6.53;;;3.90;99.90;;;2.73;100.00;96552.69;5030688;28;20494;-69
2021/12/01 03:55:35;;;;;;;11.05;6.55;;;3.80;99.90;;;2.72;100.00;96545.91;5033301;28;20342;-69
2021/12/01 03:58:03;;;;;;;12.85;6.28;;;3.90;99.90;;;2.70;100.00;96535.69;5023416;28;20057;-69
2021/12/01 04:00:30;;;;;;;9.63;5.40;;;3.80;99.90;;;2.71;100.00;96570.69;5031194;28;20136;-69
2021/12/01 04:02:58;;;;;;;9.70;6.38;;;3.80;99.90;;;2.70;100.00;96537.41;5025249;28;20049;-69
2021/12/01 04:05:25;;;;;;;9.35;5.38;;;3.80;99.90;;;2.71;100.00;96527.13;5016711;28;20042;-68
2021/12/01 04:07:52;;;;;;;8.38;5.80;;;3.80;99.90;;;2.73;100.00;96501.44;5018071;28;20471;-69
2021/12/01 04:10:20;;;;;;;9.85;6.00;;;3.80;99.90;;;2.75;100.00;96519.34;5026110;28;20109;-69
2021/12/01 04:12:48;;;;;;;12.13;5.50;;;3.80;99.90;;;2.75;100.00;96492.00;5022288;28;20130;-69
2021/12/01 04:15:16;;;;;;;10.40;5.93;;;3.80;99.90;;;2.69;100.00;96523.78;5023195;28;20056;-69
2021/12/01 04:17:44;;;;;;;10.55;4.15;;;3.80;99.90;;;2.64;100.00;96519.66;5033123;28;20084;-69
2021/12/01 04:20:13;;;;;;;8.50;4.43;;;3.80;99.90;;;2.68;100.00;96475.13;5027823;28;20505;-69
2021/12/01 04:22:42;;;;;;;11.20;6.18;;;3.80;99.90;;;2.66;100.00;96480.28;5028195;28;20132;-69
2021/12/01 04:25:10;;;;;;;11.30;5.55;;;3.80;99.90;;;2.68;100.00;96465.72;5039648;28;20128;-70
2021/12/01 04:27:38;;;;;;;8.73;5.07;;;3.80;99.90;;;2.71;100.00;96496.38;5027607;28;20092;-68
2021/12/01 04:30:10;;;;;;;9.13;4.93;;;3.80;99.90;;;2.74;100.00;96464.72;5026333;28;20169;-68
2021/12/01 04:32:38;;;;;;;7.75;4.22;;;3.80;99.90;;;2.75;100.00;96447.59;5031847;28;20152;-69
2021/12/01 04:35:07;;;;;;;9.52;4.80;;;3.90;99.90;;;2.78;100.00;96444.94;5023884;28;20092;-68
2021/12/01 04:37:37;;;;;;;10.10;4.93;;;3.80;99.90;;;2.77;100.00;96536.34;5028610;28;20100;-68
2021/12/01 04:40:07;;;;;;;11.07;5.88;;;3.80;99.90;;;2.76;100.00;96464.66;5025518;28;20100;-69
2021/12/01 04:42:34;;;;;;;8.90;4.13;;;3.90;99.90;;;2.86;100.00;96445.56;5028321;28;20084;-68
2021/12/01 04:45:06;;;;;;;10.73;4.68;;;3.90;99.90;;;2.90;100.00;96416.41;5028902;28;20080;-69
2021/12/01 04:47:37;;;;;;;10.63;5.47;;;3.90;99.90;;;2.92;100.00;96433.41;5027021;28;20128;-70
2021/12/01 04:50:06;;;;;;;11.13;5.15;;;3.90;99.90;;;2.88;100.00;96457.44;5030985;28;20081;-69
2021/12/01 04:52:33;;;;;;;6.07;3.55;;;4.00;99.90;;;2.87;100.00;96442.09;5028008;28;20081;-70
2021/12/01 04:55:00;;;;;;;4.93;2.95;;;3.90;99.90;;;2.85;100.00;96457.53;5027612;28;20053;-69
2021/12/01 04:57:27;;;;;;;7.95;3.55;;;3.90;99.90;;;2.84;100.00;96409.72;5028388;28;20150;-69
2021/12/01 04:59:55;;;;;;;13.73;4.35;;;4.00;99.90;;;2.87;100.00;96401.09;5027065;28;20080;-68
2021/12/01 05:02:21;;;;;;;7.75;4.15;;;3.90;99.90;;;2.85;100.00;96419.09;5027795;28;20128;-69
2021/12/01 05:04:49;;;;;;;11.32;5.32;;;4.00;99.90;;;2.92;100.00;96371.88;5024674;28;20046;-67
2021/12/01 05:07:17;;;;;;;7.85;3.92;;;4.00;99.90;;;2.99;100.00;96361.41;5023633;28;20097;-69
2021/12/01 05:09:44;;;;;;;7.60;3.67;;;4.10;99.90;;;3.04;100.00;96374.94;5024476;28;20085;-69
2021/12/01 05:12:11;;;;;;;4.70;2.35;;;4.10;99.90;;;3.07;100.00;96424.38;5020506;28;20129;-69
2021/12/01 05:14:39;;;;;;;6.07;2.70;;;4.20;99.90;;;3.07;100.00;96344.06;5019847;28;20084;-69
2021/12/01 05:17:07;;;;;;;5.97;2.42;;;4.10;99.90;;;3.09;100.00;96383.31;5019323;28;20510;-69
2021/12/01 05:19:35;;;;;;;4.82;2.55;;;4.10;99.90;;;3.12;100.00;96343.06;5024793;28;20140;-70
2021/12/01 05:22:03;;;;;;;6.90;2.38;;;4.10;99.90;;;3.17;100.00;96317.25;5025663;28;20125;-68
2021/12/01 05:24:31;;;;;;;8.63;2.90;;;4.20;99.90;;;3.23;100.00;96376.00;5031880;28;20420;-69
2021/12/01 05:26:59;;;;;;;4.45;2.35;;;4.20;99.90;;;3.17;100.00;96360.00;5028669;28;20562;-68
2021/12/01 05:29:26;;;;;;;9.38;3.67;;;4.20;99.90;;;3.13;100.00;96382.34;5024735;28;20073;-68
2021/12/01 05:31:54;;;;;;;7.07;2.75;;;4.20;99.90;;;3.20;100.00;96377.84;5016225;28;20129;-68
2021/12/01 05:34:22;;;;;;;7.82;4.30;;;4.20;99.90;;;3.12;100.00;96394.34;5034542;28;20076;-69
2021/12/01 05:36:50;;;;;;;6.88;2.42;;;4.20;99.90;;;3.19;100.00;96378.72;5027435;28;20476;-68
2021/12/01 05:39:18;;;;;;;5.78;2.70;;;4.20;99.90;;;3.22;100.00;96333.31;5037405;28;20516;-69
2021/12/01 05:41:45;;;;;;;5.10;2.53;;;4.20;99.90;;;3.26;100.00;96381.06;5021054;28;20138;-69
2021/12/01 05:44:12;;;;;;;8.13;3.83;;;4.30;99.90;;;3.27;100.00;96353.69;5018064;28;20103;-68
2021/12/01 05:46:39;;;;;;;5.63;3.50;;;4.20;99.90;;;3.26;100.00;96362.25;5017851;28;20532;-68
2021/12/01 05:49:06;;;;;;;8.02;3.15;;;4.30;99.90;;;3.27;100.00;96369.06;5020594;28;20088;-69
2021/12/01 05:51:33;;;;;;;6.30;3.45;;;4.30;99.90;;;3.29;100.00;96350.19;5025073;28;20206;-69
2021/12/01 05:54:02;;;;;;;6.28;2.45;;;4.30;99.90;;;3.27;100.00;96317.78;5020578;28;20120;-69
2021/12/01 05:56:30;;;;;;;4.78;2.75;;;4.30;99.90;;;3.26;100.00;96331.47;5028618;28;20208;-68
2021/12/01 05:58:57;;;;;;;12.07;4.80;;;4.40;99.90;;;3.25;100.00;96353.72;5021038;28;20061;-68
2021/12/01 06:01:25;;;;;;;6.78;3.17;;;4.40;99.90;;;3.24;100.00;96328.13;5022395;28;20541;-68
2021/12/01 06:03:52;;;;;;;4.03;1.80;;;4.40;99.90;;;3.25;100.00;96334.94;5017864;28;20475;-68
2021/12/01 06:06:19;;;;;;;3.95;2.35;;;4.50;99.90;;;3.30;100.00;96330.50;5016281;28;20085;-70
2021/12/01 06:08:46;;;;;;;4.70;2.08;;;4.40;99.90;;;3.28;100.00;96307.44;5025711;28;20084;-69
2021/12/01 06:11:14;;;;;;;6.15;2.58;;;4.40;99.90;;;3.30;100.00;96305.69;5017683;28;20125;-69
2021/12/01 06:13:43;;;;;;;4.53;2.60;;;4.40;99.90;;;3.31;100.00;96284.28;5022289;28;20442;-69
2021/12/01 06:16:10;;;;;;;4.65;2.22;;;4.40;99.90;;;3.30;100.00;96304.84;5026930;28;20510;-68
2021/12/01 06:18:37;;;;;;;5.20;2.15;;;4.30;99.90;;;3.32;100.00;96324.41;5019730;28;20108;-69
2021/12/01 06:21:04;;;;;;;5.43;2.58;;;4.40;99.90;;;3.31;100.00;96286.84;5020985;28;20141;-69
2021/12/01 06:23:31;;;;;;;4.13;1.92;;;4.40;99.90;;;3.34;100.00;96284.16;5023105;28;20397;-68
2021/12/01 06:25:58;;;;;;;4.07;2.03;;;4.50;99.90;;;3.34;100.00;96317.50;5020475;28;20780;-68
2021/12/01 06:28:25;;;;;;;4.10;2.00;;;4.40;99.90;;;3.33;100.00;96248.31;5033476;28;20481;-69
2021/12/01 06:30:52;;;;;;;7.97;3.03;;;4.50;99.90;;;3.42;100.00;96235.19;5034689;28;20056;-69
2021/12/01 06:33:22;;;;;;;4.43;2.53;;;4.40;99.90;;;3.43;100.00;96267.63;5029683;28;20489;-68
2021/12/01 06:35:51;;;;;;;4.95;2.15;;;4.50;99.90;;;3.46;100.00;96264.13;5023562;28;20517;-69
2021/12/01 06:38:19;;;;;;;7.00;2.83;;;4.50;99.90;;;3.40;100.00;96266.88;5032174;28;20049;-68
2021/12/01 06:40:48;;;;;;;3.50;2.03;;;4.50;99.90;;;3.42;100.00;96254.84;5018858;28;20130;-68
2021/12/01 06:43:15;;;;;;;7.93;2.55;;;4.50;99.90;;;3.43;100.00;96229.16;5037448;28;20081;-69
2021/12/01 06:45:43;;;;;;;4.53;2.40;;;4.50;99.90;;;3.46;100.00;96234.16;5045735;28;20501;-68
2021/12/01 06:48:10;;;;;;;6.68;2.13;;;4.50;99.90;;;3.50;100.00;96217.78;5028134;28;20046;-69
2021/12/01 06:50:38;;;;;;;4.72;1.80;;;4.60;99.90;;;3.48;100.00;96244.38;5022982;28;20037;-68
2021/12/01 06:53:05;;;;;;;4.45;2.28;;;4.50;99.90;;;3.46;100.00;96264.94;5035732;28;20085;-69
2021/12/01 06:55:33;;;;;;;6.45;2.70;;;4.60;99.90;;;3.46;100.00;96264.94;5047902;28;20132;-68
2021/12/01 06:58:01;;;;;;;4.68;2.47;;;4.60;99.90;;;3.46;100.00;96225.63;5035410;28;20490;-69
2021/12/01 07:00:30;;;;;;;6.15;2.50;;;4.50;99.90;;;3.42;100.00;96212.09;5032613;28;20095;-72
2021/12/01 07:02:57;;;;;;;5.05;2.40;;;4.50;99.90;;;3.36;100.00;96237.97;5022340;28;20175;-69
2021/12/01 07:05:25;;;;;;;7.05;1.83;;;4.50;99.90;;;3.37;100.00;96231.94;5020777;28;20528;-69
2021/12/01 07:07:52;;;;;;;3.72;1.73;;;4.50;99.90;;;3.38;100.00;96207.97;5022585;28;20132;-70
2021/12/01 07:10:20;;;;;;;7.07;2.13;;;4.50;99.90;;;3.35;100.00;96226.00;5032360;28;20408;-68
2021/12/01 07:12:47;;;;;;;2.65;1.33;;;4.50;99.90;;;3.38;100.00;96219.97;5023241;28;20458;-68
2021/12/01 07:15:18;;;;;;;4.63;2.10;;;4.60;99.90;;;3.40;100.00;96201.06;5022511;28;20057;-69
2021/12/01 07:17:48;;;;;;;5.50;1.60;;;4.50;99.90;;;3.39;100.00;96158.31;5024041;28;20053;-69
2021/12/01 07:20:15;;;;;;;4.15;2.03;;;4.60;99.90;;;3.44;100.00;96184.63;5029233;28;20151;-69
2021/12/01 07:22:42;;;;;;;4.32;2.40;;;4.50;99.90;;;3.41;100.00;96189.06;5022448;28;20099;-70
2021/12/01 07:25:11;;;;;;;3.80;1.98;;;4.50;99.90;;;3.44;100.00;96169.25;5019354;28;20042;-69
2021/12/01 07:27:38;;;;;;;4.10;1.85;;;4.60;99.90;;;3.51;100.00;96191.25;5036306;28;20125;-69
2021/12/01 07:30:06;;;;;;;3.03;1.63;;;4.60;99.90;;;3.52;100.00;96159.56;5029051;28;20063;-69
2021/12/01 07:32:33;;;;;;;4.13;2.00;;;4.60;99.90;;;3.52;100.00;96186.94;5045891;28;20447;-68
2021/12/01 07:35:00;;;;;;;3.72;1.42;;;4.60;99.90;;;3.53;100.00;96175.78;5038157;28;20467;-68
2021/12/01 07:37:27;;;;;;;3.90;2.00;;;4.60;99.90;;;3.54;100.00;96172.34;5033188;28;20088;-68
2021/12/01 07:39:54;;;;;;;4.15;1.63;;;4.70;99.90;;;3.56;100.00;96150.84;5028567;28;20129;-69
2021/12/01 07:42:21;;;;;;;3.70;2.05;;;4.70;99.90;;;3.60;100.00;96158.41;5039705;28;20069;-69
2021/12/01 07:44:48;;;;;;;2.85;1.52;;;4.70;99.90;;;3.68;100.00;96134.16;5031236;28;20176;-69
2021/12/01 07:47:15;;;;;;;3.72;1.48;;;4.60;99.90;;;3.65;100.00;96159.94;5028186;28;20132;-69
2021/12/01 07:49:42;;;;;;;2.40;1.20;;;4.70;99.90;;;3.67;100.00;96139.31;5029644;28;20279;-69
2021/12/01 07:52:10;;;;;;;3.08;1.33;;;4.70;99.90;;;3.64;100.00;96130.03;5032032;28;20073;-68
2021/12/01 07:54:39;;;;;;;4.28;1.80;;;4.80;99.90;;;3.70;100.00;96139.22;5028660;28;20415;-69
2021/12/01 07:57:07;;;;;;;3.33;1.55;;;4.80;99.90;;;3.71;100.00;96128.88;5025517;28;20149;-68
2021/12/01 07:59:36;;;;;;;1.60;0.90;;;4.80;99.90;;;3.73;100.00;96108.31;5026500;28;20128;-69
2021/12/01 08:02:03;;;;;;;2.33;1.17;;;4.90;99.90;;;3.77;100.00;96125.25;5027321;28;20041;-68
2021/12/01 08:04:31;;;;;;;4.55;2.13;;;4.90;99.90;;;3.77;100.00;96123.53;5027157;28;20050;-68
2021/12/01 08:06:58;;;;;;;3.13;1.10;;;4.90;99.90;;;3.81;100.00;96102.88;5030379;28;20072;-68
2021/12/01 08:09:25;;;;;;;3.63;1.02;;;4.90;99.90;;;3.76;100.00;96116.75;5025008;28;20057;-69
2021/12/01 08:11:54;;;;;;;2.13;1.00;;;5.00;99.90;;;3.77;100.00;96086.78;5021117;28;20103;-68
2021/12/01 08:14:22;;;;;;;2.10;0.90;;;4.90;99.90;;;3.88;100.00;96060.69;5029665;28;20049;-68
2021/12/01 08:16:50;;;;;;;2.63;0.80;;;4.90;99.90;;;3.86;100.00;96055.59;5031983;28;20132;-69
2021/12/01 08:19:18;;;;;;;1.65;0.80;;;5.00;99.90;;;3.90;100.00;96064.00;5025891;28;20128;-68
2021/12/01 08:21:49;;;;;;;2.65;1.13;;;4.90;99.90;;;3.89;100.00;96026.41;5030696;28;20243;-68
2021/12/01 08:24:17;;;;;;;8.73;0.60;;;5.00;99.90;;;3.99;100.00;96086.72;5028382;28;20050;-69
2021/12/01 08:26:45;;;;;;;2.00;0.80;;;5.10;99.90;;;4.00;100.00;96085.03;5018779;28;20046;-69
2021/12/01 08:29:12;;;;;;;4.53;0.90;;;5.10;99.90;;;4.00;100.00;96028.53;5026105;28;20192;-69
2021/12/01 08:31:40;;;;;;;3.47;1.17;;;5.10;99.90;;;4.01;100.00;96036.16;5034600;28;20073;-68
2021/12/01 08:34:08;;;;;;;4.45;0.85;;;5.10;99.90;;;4.05;100.00;96011.19;5027858;28;20049;-69
2021/12/01 08:36:35;;;;;;;1.67;0.70;;;5.10;99.90;;;3.96;100.00;96275.09;5044643;28;20073;-68
2021/12/01 08:39:05;;;;;;;1.77;0.60;;;5.10;99.90;;;3.98;100.00;96288.72;5034507;28;20046;-69
2021/12/01 08:41:32;;;;;;;2.55;0.90;;;5.10;99.90;;;4.07;100.00;96317.53;5023613;28;20132;-69
2021/12/01 08:43:59;;;;;;;1.38;0.60;;;5.10;99.90;;;4.08;100.00;96032.47;5019969;28;20455;-69
2021/12/01 08:46:27;;;;;;;2.17;0.70;;;5.10;99.90;;;4.08;100.00;96034.16;5025994;28;20497;-68
2021/12/01 08:48:54;;;;;;;1.65;0.57;;;5.10;99.90;;;4.14;100.00;96021.09;5035143;28;20164;-68
2021/12/01 08:51:22;;;;;;;1.42;0.52;;;5.20;99.90;;;4.19;100.00;96014.84;5028949;28;20160;-69
2021/12/01 08:53:49;;;;;;;1.67;0.60;;;5.10;99.90;;;4.19;100.00;96014.00;5025736;28;20080;-68
2021/12/01 08:56:16;;;;;;;1.60;0.65;;;5.20;99.90;;;4.26;100.00;95981.19;5022468;28;20136;-69
2021/12/01 08:58:43;;;;;;;2.92;0.60;;;5.20;99.90;;;4.28;100.00;95998.22;5021063;28;20209;-69
2021/12/01 09:01:11;;;;;;;1.88;0.75;;;5.30;99.90;;;4.28;100.00;96029.03;5026186;28;20053;-69
2021/12/01 09:03:39;;;;;;;1.98;0.70;;;5.30;99.90;;;4.31;100.00;96049.47;5021033;28;20647;-69
2021/12/01 09:06:05;;;;;;;2.42;0.50;;;5.30;99.90;;;4.35;100.00;96027.03;5020833;28;20064;-68
2021/12/01 09:08:33;;;;;;;3.15;0.85;;;5.40;99.90;;;4.35;100.00;95976.50;5028847;28;20045;-69
2021/12/01 09:11:03;;;;;;;1.85;0.60;;;5.40;99.90;;;4.43;100.00;96027.56;5026427;28;20045;-69
2021/12/01 09:13:33;;;;;;;0.73;0.45;;;5.40;99.90;;;4.47;100.00;95956.31;5027810;28;20414;-69
2021/12/01 09:16:00;;;;;;;2.28;0.60;;;5.40;99.90;;;4.51;100.00;95993.81;5024351;28;20506;-69
2021/12/01 09:18:29;;;;;;;1.35;0.50;;;5.50;99.90;;;4.52;100.00;95969.81;5028331;28;20054;-69
2021/12/01 09:20:58;;;;;;;1.08;0.50;;;5.40;99.90;;;4.53;100.00;95984.31;5029402;28;20049;-68
2021/12/01 09:23:25;;;;;;;3.03;0.40;;;5.50;99.90;;;4.54;100.00;95955.16;5023542;28;20569;-70
2021/12/01 09:25:52;;;;;;;1.38;0.47;;;5.50;99.90;;;4.54;100.00;95988.56;5029693;28;20140;-68
2021/12/01 09:28:22;;;;;;;0.75;0.40;;;5.60;99.90;;;4.51;100.00;95937.28;5027282;28;20045;-68
2021/12/01 09:30:54;;;;;;;0.82;0.50;;;5.60;99.90;;;4.52;100.00;95978.34;5027488;28;20128;-69
2021/12/01 09:33:22;;;;;;;2.10;0.77;;;5.60;99.90;;;4.58;100.00;95962.66;5024470;28;20045;-71
2021/12/01 09:35:51;;;;;;;0.88;0.40;;;5.60;99.90;;;4.58;100.00;95931.81;5026421;28;20099;-71
2021/12/01 09:38:19;;;;;;;0.73;0.40;;;5.60;99.90;;;4.63;100.00;95974.44;5024028;28;20045;-68
2021/12/01 09:40:52;;;;;;;1.13;0.47;;;5.60;99.90;;;4.61;100.00;95939.38;5028609;28;20083;-69
2021/12/01 09:43:27;;;;;;;2.00;0.60;;;5.70;99.90;;;4.67;100.00;95911.72;5022320;28;20133;-67
2021/12/01 09:45:56;;;;;;;1.05;0.40;;;5.60;99.90;;;4.60;100.00;95919.72;5021019;28;20502;-68
2021/12/01 09:48:24;;;;;;;0.50;0.30;;;5.70;99.90;;;4.54;100.00;95912.31;5023013;28;20055;-69
2021/12/01 09:51:13;;;;;;;0.80;0.40;;;5.60;99.90;;;4.53;100.00;95959.44;5019816;28;20144;-68
2021/12/01 09:53:41;;;;;;;2.50;0.60;;;5.60;99.90;;;4.58;100.00;95905.28;5029687;28;20088;-69
2021/12/01 09:56:08;;;;;;;0.93;0.38;;;5.60;99.90;;;4.67;100.00;95907.41;5012155;28;20077;-68
2021/12/01 09:58:35;;;;;;;1.05;0.50;;;5.70;99.90;;;4.70;100.00;95921.84;5018441;28;20045;-69
2021/12/01 10:01:12;;;;;;;1.08;0.40;;;5.70;99.90;;;4.70;100.00;95888.44;5041929;28;20057;-69
2021/12/01 10:03:40;;;;;;;3.22;0.45;;;5.80;99.90;;;4.73;100.00;95896.03;5016649;28;20081;-69
2021/12/01 10:06:13;;;;;;;1.10;0.40;;;5.80;99.90;;;4.76;100.00;95871.00;5023010;28;20500;-68
2021/12/01 10:08:46;;;;;;;1.63;0.50;;;5.80;99.90;;;4.76;100.00;95878.72;5028587;28;20127;-70
2021/12/01 10:11:51;;;;;;;4.78;0.60;;;5.80;99.90;;;4.78;100.00;95892.34;5019302;28;20124;-70
2021/12/01 10:14:20;;;;;;;1.55;0.40;;;5.80;99.90;;;4.81;100.00;95871.66;5005264;28;20050;-69
2021/12/01 10:16:53;;;;;;;0.68;0.40;;;5.80;99.90;;;4.81;100.00;95875.94;5029688;28;20129;-68
2021/12/01 10:19:20;;;;;;;1.08;0.40;;;5.80;99.90;;;4.81;100.00;95838.22;5022596;28;20541;-69
2021/12/01 10:21:50;;;;;;;2.05;0.70;;;5.90;99.90;;;4.87;100.00;95861.97;5013102;28;20524;-68
2021/12/01 10:24:21;;;;;;;0.90;0.43;;;5.90;99.90;;;4.91;100.00;95851.47;5023936;28;20517;-69
2021/12/01 10:26:56;;;;;;;1.42;0.50;;;5.90;99.90;;;4.91;100.00;95824.94;5025568;28;20049;-69
2021/12/01 10:29:30;;;;;;;1.00;0.47;;;6.00;99.90;;;4.91;100.00;95846.34;5020616;28;20125;-70
2021/12/01 10:32:19;;;;;;;1.30;0.40;;;6.00;99.90;;;4.91;100.00;95830.91;5031789;28;20357;-69
2021/12/01 10:34:53;;;;;;;1.05;0.40;;;5.90;99.90;;;4.85;100.00;95864.59;5029829;28;20513;-68
2021/12/01 10:37:26;;;;;;;0.50;0.30;;;5.90;99.90;;;4.88;100.00;95835.34;5017768;28;20472;-69
2021/12/01 10:40:08;;;;;;;0.65;0.30;;;5.90;99.90;;;4.86;100.00;95834.59;5021678;28;20096;-70